createdAt,value
2022-09-23T00:02:37.801Z,100796.09
2022-09-23T00:07:39.547Z,100795.09
2022-09-23T00:12:41.051Z,100796.25
2022-09-23T00:17:43.215Z,100791.50
2022-09-23T00:22:44.873Z,100794.31
2022-09-23T00:27:46.422Z,100778.97
2022-09-23T00:32:47.999Z,100779.78
2022-09-23T00:37:49.494Z,100779.63
2022-09-23T00:42:52.109Z,100781.34
2022-09-23T00:47:56.567Z,100773.34
2022-09-23T00:52:59.761Z,100776.75
2022-09-23T00:58:03.959Z,100772.44
2022-09-23T01:03:06.860Z,100768.44
2022-09-23T01:08:10.529Z,100768.19
2022-09-23T01:13:32.064Z,100766.41
2022-09-23T01:18:43.534Z,100756.41
2022-09-23T01:24:02.317Z,100756.00
2022-09-23T01:29:41.570Z,100748.84
2022-09-23T01:34:42.981Z,100744.97
2022-09-23T01:40:11.355Z,100748.31
2022-09-23T01:45:33.957Z,100734.28
2022-09-23T01:50:55.931Z,100731.69
2022-09-23T01:56:02.121Z,100737.31
2022-09-23T02:01:07.101Z,100718.69
2022-09-23T02:06:13.153Z,100720.03
2022-09-23T02:11:15.579Z,100723.16
2022-09-23T02:16:31.559Z,100723.56
2022-09-23T02:21:40.470Z,100711.47
2022-09-23T02:27:06.649Z,100706.19
2022-09-23T02:32:22.893Z,100705.88
2022-09-23T02:37:37.157Z,100705.50
2022-09-23T02:42:50.176Z,100696.06
2022-09-23T02:47:57.124Z,100694.47
2022-09-23T02:52:59.396Z,100686.22
2022-09-23T02:58:02.017Z,100682.41
2022-09-23T03:03:19.086Z,100676.84
2022-09-23T03:08:37.045Z,100682.47
2022-09-23T03:13:53.852Z,100674.13
2022-09-23T03:19:05.946Z,100667.75
2022-09-23T03:24:09.198Z,100655.50
2022-09-23T03:29:11.675Z,100657.56
2022-09-23T03:34:24.308Z,100653.56
2022-09-23T03:39:25.740Z,100644.72
2022-09-23T03:44:29.230Z,100651.06
2022-09-23T03:49:35.061Z,100640.91
2022-09-23T03:54:36.602Z,100641.81
2022-09-23T03:59:38.573Z,100652.41
2022-09-23T04:04:41.376Z,100636.56
2022-09-23T04:09:43.196Z,100640.91
2022-09-23T04:14:45.074Z,100637.50
2022-09-23T04:19:46.667Z,100635.78
2022-09-23T04:24:48.634Z,100631.00
2022-09-23T04:29:50.394Z,100626.00
2022-09-23T04:34:51.914Z,100628.16
2022-09-23T04:39:54.310Z,100624.97
2022-09-23T04:44:55.876Z,100634.22
2022-09-23T04:49:59.885Z,100622.78
2022-09-23T04:55:02.060Z,100617.16
2022-09-23T05:00:04.082Z,100617.34
2022-09-23T05:05:05.789Z,100617.53
2022-09-23T05:10:07.957Z,100613.09
2022-09-23T05:15:09.661Z,100612.91
2022-09-23T05:20:11.618Z,100620.84
2022-09-23T05:25:13.177Z,100627.91
2022-09-23T05:30:14.877Z,100619.09
2022-09-23T05:35:16.541Z,100624.19
2022-09-23T05:40:18.206Z,100631.00
2022-09-23T05:45:19.825Z,100634.66
2022-09-23T05:50:21.548Z,100624.59
2022-09-23T05:55:23.163Z,100624.91
2022-09-23T06:00:25.990Z,100622.56
2022-09-23T06:05:27.594Z,100619.13
2022-09-23T06:10:30.317Z,100623.28
2022-09-23T06:15:32.690Z,100627.75
2022-09-23T06:20:35.485Z,100617.09
2022-09-23T06:25:40.683Z,100621.31
2022-09-23T06:30:42.686Z,100627.78
2022-09-23T06:35:53.039Z,100626.19
2022-09-23T06:40:58.098Z,100626.03
2022-09-23T06:46:00.984Z,100622.13
2022-09-23T06:51:05.086Z,100619.34
2022-09-23T06:56:08.309Z,100621.47
2022-09-23T07:01:18.224Z,100619.66
2022-09-23T07:06:20.259Z,100620.78
2022-09-23T07:11:22.595Z,100623.97
2022-09-23T07:16:24.444Z,100611.53
2022-09-23T07:21:27.895Z,100616.59
2022-09-23T07:26:30.927Z,100613.19
2022-09-23T07:31:39.167Z,100622.56
2022-09-23T07:36:41.426Z,100618.88
2022-09-23T07:41:44.613Z,100611.75
2022-09-23T07:46:46.795Z,100610.59
2022-09-23T07:51:48.769Z,100617.41
2022-09-23T07:56:50.289Z,100613.84
2022-09-23T08:01:54.948Z,100615.34
2022-09-23T08:07:01.726Z,100613.19
2022-09-23T08:12:03.572Z,100617.38
2022-09-23T08:17:05.890Z,100616.69
2022-09-23T08:22:07.472Z,100621.34
2022-09-23T08:27:10.830Z,100621.19
2022-09-23T08:32:12.330Z,100617.19
2022-09-23T08:37:13.885Z,100605.63
2022-09-23T08:42:23.257Z,100603.69
2022-09-23T08:47:43.734Z,100600.22
2022-09-23T08:53:14.977Z,100590.38
2022-09-23T08:58:33.247Z,100583.72
2022-09-23T09:03:46.343Z,100573.78
2022-09-23T09:08:55.066Z,100575.53
2022-09-23T09:14:19.752Z,100573.13
2022-09-23T09:19:32.307Z,100577.31
2022-09-23T09:24:35.039Z,100573.50
2022-09-23T09:29:39.934Z,100565.44
2022-09-23T09:34:49.348Z,100558.66
2022-09-23T09:39:50.862Z,100567.75
2022-09-23T09:45:03.659Z,100558.22
2022-09-23T09:50:21.206Z,100541.28
2022-09-23T09:55:26.419Z,100539.25
2022-09-23T10:00:27.847Z,100533.94
2022-09-23T10:05:34.630Z,100531.25
2022-09-23T10:10:36.168Z,100528.59
2022-09-23T10:15:45.366Z,100523.50
2022-09-23T10:20:48.048Z,100526.06
2022-09-23T10:26:03.529Z,100519.66
2022-09-23T10:31:06.517Z,100525.91
2022-09-23T10:36:11.147Z,100515.13
2022-09-23T10:41:50.857Z,100516.16
2022-09-23T10:47:15.604Z,100509.59
2022-09-23T10:52:38.062Z,100495.81
2022-09-23T10:57:45.541Z,100502.88
2022-09-23T11:03:09.444Z,100490.91
2022-09-23T11:08:27.266Z,100483.34
2022-09-23T11:13:42.933Z,100473.75
2022-09-23T11:19:22.146Z,100470.91
2022-09-23T11:25:04.243Z,100464.00
2022-09-23T11:30:09.060Z,100465.31
2022-09-23T11:35:22.656Z,100457.50
2022-09-23T11:40:31.995Z,100453.78
2022-09-23T11:45:37.453Z,100451.38
2022-09-23T11:51:03.662Z,100444.28
2022-09-23T11:56:10.553Z,100441.06
2022-09-23T12:01:23.452Z,100429.78
2022-09-23T12:06:45.103Z,100428.09
2022-09-23T12:11:53.683Z,100423.97
2022-09-23T12:17:11.154Z,100423.25
2022-09-23T12:22:15.670Z,100409.59
2022-09-23T12:27:38.941Z,100409.66
2022-09-23T12:32:42.215Z,100408.88
2022-09-23T12:37:43.874Z,100401.56
2022-09-23T12:42:47.158Z,100407.44
2022-09-23T12:47:48.839Z,100401.19
2022-09-23T12:52:50.550Z,100397.94
2022-09-23T12:57:52.203Z,100395.25
2022-09-23T13:03:15.292Z,100380.19
2022-09-23T13:08:22.587Z,100374.88
2022-09-23T13:13:31.650Z,100369.47
2022-09-23T13:18:52.657Z,100361.00
2022-09-23T13:24:12.699Z,100353.50
2022-09-23T13:29:20.325Z,100357.69
2022-09-23T13:34:24.866Z,100347.25
2022-09-23T13:39:27.642Z,100343.41
2022-09-23T13:44:29.713Z,100341.38
2022-09-23T13:49:35.917Z,100325.19
2022-09-23T13:54:49.301Z,100328.66
2022-09-23T13:59:50.895Z,100327.63
2022-09-23T14:04:52.784Z,100319.16
2022-09-23T14:09:55.686Z,100316.66
2022-09-23T14:14:57.479Z,100314.41
2022-09-23T14:19:59.071Z,100304.44
2022-09-23T14:25:00.648Z,100298.38
2022-09-23T14:30:03.060Z,100291.97
2022-09-23T14:35:14.422Z,100287.97
2022-09-23T14:40:26.808Z,100278.38
2022-09-23T14:45:35.420Z,100274.00
2022-09-23T14:50:37.215Z,100264.88
2022-09-23T14:55:38.817Z,100266.56
2022-09-23T15:00:54.433Z,100265.53
2022-09-23T15:06:08.359Z,100262.00
2022-09-23T15:11:10.271Z,100252.78
2022-09-23T15:16:14.337Z,100251.06
2022-09-23T15:21:18.660Z,100249.06
2022-09-23T15:26:47.255Z,100246.72
2022-09-23T15:31:48.899Z,100254.13
2022-09-23T15:36:50.771Z,100257.22
2022-09-23T15:41:52.729Z,100248.84
2022-09-23T15:46:55.847Z,100247.50
2022-09-23T15:51:59.265Z,100239.50
2022-09-23T15:57:01.304Z,100244.41
2022-09-23T16:02:05.750Z,100234.47
2022-09-23T16:07:10.959Z,100227.41
2022-09-23T16:12:12.640Z,100226.72
2022-09-23T16:17:14.655Z,100219.34
2022-09-23T16:22:16.606Z,100212.50
2022-09-23T16:27:19.124Z,100210.34
2022-09-23T16:32:22.334Z,100222.50
2022-09-23T16:37:24.949Z,100221.16
2022-09-23T16:42:27.451Z,100220.03
2022-09-23T16:47:28.966Z,100216.22
2022-09-23T16:52:31.070Z,100225.03
2022-09-23T16:57:32.645Z,100221.66
2022-09-23T17:02:52.848Z,100204.72
2022-09-23T17:07:54.816Z,100210.09
2022-09-23T17:12:57.913Z,100214.34
2022-09-23T17:17:59.410Z,100203.44
2022-09-23T17:23:01.132Z,100209.88
2022-09-23T17:28:02.674Z,100207.69
2022-09-23T17:33:04.278Z,100215.66
2022-09-23T17:38:05.908Z,100213.84
2022-09-23T17:43:07.802Z,100216.19
2022-09-23T17:48:09.345Z,100209.13
2022-09-23T17:53:10.841Z,100203.44
2022-09-23T17:58:12.342Z,100206.84
2022-09-23T18:03:14.880Z,100221.81
2022-09-23T18:08:16.652Z,100215.25
2022-09-23T18:13:18.409Z,100208.78
2022-09-23T18:18:20.660Z,100210.84
2022-09-23T18:23:26.000Z,100209.00
2022-09-23T18:28:34.615Z,100207.66
2022-09-23T18:33:36.864Z,100221.81
2022-09-23T18:38:38.703Z,100216.31
2022-09-23T18:43:44.031Z,100212.13
2022-09-23T18:49:06.909Z,100218.78
2022-09-23T18:54:08.742Z,100212.63
2022-09-23T18:59:19.398Z,100213.16
2022-09-23T19:04:21.181Z,100222.41
2022-09-23T19:09:22.688Z,100218.66
2022-09-23T19:14:24.497Z,100209.50
2022-09-23T19:19:26.028Z,100208.84
2022-09-23T19:24:28.170Z,100209.31
2022-09-23T19:29:30.386Z,100216.03
2022-09-23T19:34:34.601Z,100215.91
2022-09-23T19:39:37.485Z,100205.47
2022-09-23T19:44:40.944Z,100204.13
2022-09-23T19:49:42.563Z,100206.84
2022-09-23T19:54:44.499Z,100210.84
2022-09-23T19:59:46.353Z,100202.59
2022-09-23T20:04:47.944Z,100210.31
2022-09-23T20:09:49.586Z,100200.75
2022-09-23T20:14:51.809Z,100201.75
2022-09-23T20:19:53.356Z,100201.75
2022-09-23T20:24:56.235Z,100188.47
2022-09-23T20:29:58.685Z,100189.66
2022-09-23T20:35:00.914Z,100188.63
2022-09-23T20:40:05.128Z,100179.41
2022-09-23T20:45:07.285Z,100185.59
2022-09-23T20:50:09.224Z,100176.03
2022-09-23T20:55:10.948Z,100176.34
2022-09-23T21:00:13.141Z,100166.63
2022-09-23T21:05:15.100Z,100178.50
2022-09-23T21:10:16.594Z,100167.41
2022-09-23T21:15:18.222Z,100166.63
2022-09-23T21:20:19.790Z,100162.28
2022-09-23T21:25:29.414Z,100162.09
2022-09-23T21:30:32.095Z,100160.06
2022-09-23T21:35:33.641Z,100158.66
2022-09-23T21:40:53.621Z,100152.09
2022-09-23T21:45:59.925Z,100155.63
2022-09-23T21:51:03.573Z,100157.84
2022-09-23T21:56:07.137Z,100147.47
2022-09-23T22:01:15.207Z,100153.97
2022-09-23T22:06:20.255Z,100156.31
2022-09-23T22:11:42.190Z,100151.25
2022-09-23T22:16:44.321Z,100142.91
2022-09-23T22:21:45.960Z,100135.34
2022-09-23T22:26:47.710Z,100129.44
2022-09-23T22:32:08.175Z,100137.88
2022-09-23T22:37:09.685Z,100132.50
2022-09-23T22:42:13.098Z,100125.41
2022-09-23T22:47:15.116Z,100127.47
2022-09-23T22:52:21.176Z,100122.13
2022-09-23T22:57:22.838Z,100113.03
2022-09-23T23:02:24.360Z,100116.63
2022-09-23T23:07:25.921Z,100114.44
2022-09-23T23:12:27.445Z,100100.97
2022-09-23T23:17:29.832Z,100107.31
2022-09-23T23:22:31.362Z,100104.94
2022-09-23T23:27:32.932Z,100107.72
2022-09-23T23:32:34.476Z,100099.22
2022-09-23T23:37:36.025Z,100095.91
2022-09-23T23:42:37.621Z,100098.94
2022-09-23T23:47:39.981Z,100099.63
2022-09-23T23:52:44.040Z,100096.41
2022-09-23T23:57:45.524Z,100102.09
